Time;durP1;ratioP1;P1;durP2;ratioP2;P2;SDS_P1;SDS_P2;PMS_P1;PMS_P2;Temp;Humidity;BMP_temperature;BMP_pressure;BME280_temperature;BME280_humidity;BME280_pressure;Samples;Min_cycle;Max_cycle;Signal;HPM_P1;HPM_P2
2023/01/26 00:00:43;;;;;;;31.65;12.65;;;;;;;3.18;91.32;100970.19;5089873;28;20032;-27
2023/01/26 00:03:08;;;;;;;21.85;10.23;;;;;;;3.14;90.80;100971.44;5071450;28;20028;-30
2023/01/26 00:05:36;;;;;;;17.95;9.90;;;;;;;2.87;92.89;100931.97;5089635;28;20024;-28
2023/01/26 00:08:02;;;;;;;15.75;7.45;;;;;;;3.08;93.51;100966.78;5089779;28;20560;-28
2023/01/26 00:10:27;;;;;;;13.48;6.88;;;;;;;3.14;91.84;100941.63;5089614;28;20085;-27
2023/01/26 00:12:52;;;;;;;12.80;6.95;;;;;;;2.98;92.38;100921.22;5071456;28;20040;-28
2023/01/26 00:15:18;;;;;;;15.30;7.63;;;;;;;3.41;89.89;100969.75;5089084;28;20031;-30
2023/01/26 00:17:43;;;;;;;15.23;7.45;;;;;;;3.34;89.16;100960.78;5089635;28;20024;-28
2023/01/26 00:20:09;;;;;;;15.13;7.50;;;;;;;3.15;88.54;100949.41;5089865;28;20028;-27
2023/01/26 00:22:35;;;;;;;14.88;7.30;;;;;;;3.03;89.07;100924.25;5071252;28;20039;-30
2023/01/26 00:25:00;;;;;;;16.63;7.47;;;;;;;3.05;89.08;100946.00;5089255;28;20024;-28
2023/01/26 00:27:26;;;;;;;17.60;8.30;;;;;;;3.14;90.20;100942.47;5089138;28;20515;-30
2023/01/26 00:29:52;;;;;;;18.05;8.68;;;;;;;3.18;90.07;100954.38;5089251;28;20024;-27
2023/01/26 00:32:17;;;;;;;16.73;8.43;;;;;;;3.19;90.10;100945.50;5089718;28;20032;-29
2023/01/26 00:34:43;;;;;;;18.23;9.73;;;;;;;2.96;90.67;100918.75;5089553;28;20385;-27
2023/01/26 00:37:09;;;;;;;27.27;14.40;;;;;;;3.10;92.43;100930.56;5089114;28;20076;-28
2023/01/26 00:39:34;;;;;;;23.73;11.30;;;;;;;3.11;92.18;100920.88;5088965;28;20059;-28
2023/01/26 00:42:08;;;;;;;19.80;10.13;;;;;;;3.18;90.04;100901.66;5089365;28;20115;-27
2023/01/26 00:44:37;;;;;;;17.58;9.02;;;;;;;3.32;88.74;100907.38;5075167;28;20066;-27
2023/01/26 00:47:04;;;;;;;14.73;7.47;;;;;;;3.36;88.34;100912.19;5093139;28;20060;-28
2023/01/26 00:49:30;;;;;;;13.00;7.22;;;;;;;3.59;88.11;100904.66;5093266;28;20105;-26
2023/01/26 00:51:55;;;;;;;16.15;6.90;;;;;;;3.31;88.82;100884.63;5093381;28;20067;-32
2023/01/26 00:54:20;;;;;;;32.20;11.93;;;;;;;3.22;89.54;100892.47;5093340;28;20466;-26
2023/01/26 00:56:46;;;;;;;37.78;13.52;;;;;;;3.05;90.52;100874.84;5093239;28;20034;-28
2023/01/26 00:59:11;;;;;;;30.45;12.13;;;;;;;3.23;89.22;100898.59;5074788;28;20034;-28
2023/01/26 01:01:37;;;;;;;53.97;18.55;;;;;;;3.21;89.28;100893.47;5093048;28;20024;-27
2023/01/26 01:04:02;;;;;;;33.22;12.75;;;;;;;3.12;89.77;100880.34;5093337;28;20438;-27
2023/01/26 01:06:28;;;;;;;34.03;13.20;;;;;;;3.33;89.81;100898.47;5093020;28;20028;-27
2023/01/26 01:08:53;;;;;;;35.03;11.88;;;;;;;3.12;91.07;100891.69;5092953;28;20107;-27
2023/01/26 01:11:19;;;;;;;20.52;8.20;;;;;;;3.07;91.33;100869.44;5092577;28;20472;-29
2023/01/26 01:13:44;;;;;;;21.23;7.90;;;;;;;3.12;92.22;100904.88;5093302;28;20047;-27
2023/01/26 01:16:12;;;;;;;13.75;6.90;;;;;;;3.09;90.86;100868.31;5074555;28;20130;-26
2023/01/26 01:18:38;;;;;;;;;;;;;;;3.31;89.27;100897.81;5093263;28;20050;-27
2023/01/26 01:21:08;;;;;;;25.27;10.32;;;;;;;3.09;90.56;100870.13;5092658;28;19911;-27
2023/01/26 01:23:34;;;;;;;22.33;8.63;;;;;;;2.94;92.78;100864.50;5091624;28;20075;-28
2023/01/26 01:26:00;;;;;;;16.15;7.53;;;;;;;2.99;92.20;100881.53;5091710;28;20047;-26
2023/01/26 01:28:26;;;;;;;18.98;7.90;;;;;;;3.01;92.98;100891.94;5092671;28;20024;-28
2023/01/26 01:30:51;;;;;;;17.77;8.40;;;;;;;2.83;93.61;100875.28;5092445;28;20052;-27
2023/01/26 01:33:17;;;;;;;17.48;8.02;;;;;;;2.92;93.69;100895.44;5092232;28;20063;-29
2023/01/26 01:35:42;;;;;;;15.40;7.63;;;;;;;2.72;95.05;100879.78;5074029;28;20066;-28
2023/01/26 01:38:07;;;;;;;13.07;6.82;;;;;;;2.66;94.88;100890.91;5090884;28;20051;-27
2023/01/26 01:40:33;;;;;;;13.32;6.85;;;;;;;2.65;95.65;100889.22;5090867;28;20096;-29
2023/01/26 01:42:58;;;;;;;15.10;7.03;;;;;;;2.68;94.93;100875.78;5072759;28;20050;-29
2023/01/26 01:45:33;;;;;;;12.82;6.20;;;;;;;2.97;94.50;100878.22;5090599;28;20035;-27
2023/01/26 01:48:03;;;;;;;13.30;7.07;;;;;;;3.13;93.86;100877.56;5091040;28;20024;-27
2023/01/26 01:50:33;;;;;;;16.45;7.75;;;;;;;2.98;93.28;100863.25;5090918;28;20111;-28
2023/01/26 01:52:59;;;;;;;15.73;8.05;;;;;;;2.96;94.75;100886.28;5090765;28;20032;-33
2023/01/26 01:55:25;;;;;;;13.40;7.13;;;;;;;3.04;93.68;100878.44;5071982;28;20036;-29
2023/01/26 01:57:57;;;;;;;14.02;7.25;;;;;;;3.06;94.02;100876.50;5090885;28;20077;-28
2023/01/26 02:00:23;;;;;;;13.80;6.72;;;;;;;3.00;95.13;100871.81;5090749;28;20020;-28
2023/01/26 02:05:55;;;;;;;13.25;7.22;;;;;;;3.19;94.04;100871.69;5090443;28;20415;-28
2023/01/26 02:08:26;;;;;;;15.82;7.90;;;;;;;3.17;93.38;100867.56;5072628;28;20035;-28
2023/01/26 02:10:57;;;;;;;49.83;18.20;;;;;;;3.11;92.86;100841.81;5072549;28;20096;-27
2023/01/26 02:13:23;;;;;;;20.15;8.85;;;;;;;3.19;91.82;100834.78;5072067;28;20028;-26
2023/01/26 02:15:50;;;;;;;13.52;7.80;;;;;;;3.34;91.01;100828.97;5072459;28;20483;-27
2023/01/26 02:18:16;;;;;;;13.68;7.80;;;;;;;3.34;91.93;100850.06;5090175;28;20559;-27
2023/01/26 02:20:47;;;;;;;14.32;7.47;;;;;;;3.25;91.53;100853.59;5090781;28;20027;-27
2023/01/26 02:23:22;;;;;;;15.75;8.05;;;;;;;2.97;93.46;100856.31;5090344;28;20032;-29
2023/01/26 02:25:53;;;;;;;19.85;9.45;;;;;;;2.96;94.66;100854.66;5090277;28;20024;-27
2023/01/26 02:28:26;;;;;;;15.05;7.63;;;;;;;2.67;94.07;100826.72;5090225;28;20119;-27
2023/01/26 02:30:53;;;;;;;15.32;7.53;;;;;;;3.05;92.85;100832.69;5090110;28;20438;-28
2023/01/26 02:33:37;;;;;;;16.15;7.78;;;;;;;3.16;91.75;100840.34;5089845;28;20027;-27
2023/01/26 02:36:04;;;;;;;16.58;8.88;;;;;;;3.09;92.67;100839.31;5050612;28;1119935;-27
2023/01/26 02:38:39;;;;;;;13.15;7.47;;;;;;;3.06;91.92;100828.25;5072763;28;20040;-28
2023/01/26 02:41:08;;;;;;;13.65;7.43;;;;;;;3.12;92.72;100831.09;5072751;28;20028;-27
2023/01/26 02:43:35;;;;;;;14.90;7.53;;;;;;;3.00;91.79;100824.38;5072516;28;20032;-27
2023/01/26 02:46:00;;;;;;;16.85;8.52;;;;;;;3.00;93.56;100824.38;5090917;28;20098;-26
2023/01/26 02:51:10;;;;;;;17.10;8.52;;;;;;;2.89;94.00;100811.47;5090942;28;20047;-28
2023/01/26 02:53:35;;;;;;;16.40;8.00;;;;;;;2.48;94.76;100792.63;5072115;28;20416;-28
2023/01/26 02:56:01;;;;;;;14.40;7.32;;;;;;;2.73;95.83;100826.09;5090811;28;20031;-30
2023/01/26 02:58:26;;;;;;;16.08;7.70;;;;;;;2.95;95.54;100816.13;5090586;28;20475;-27
2023/01/26 03:00:52;;;;;;;14.65;7.78;;;;;;;3.00;93.41;100804.16;5072624;28;20404;-28
2023/01/26 03:03:22;;;;;;;15.30;7.43;;;;;;;3.02;91.76;100801.34;5090350;28;20028;-31
2023/01/26 03:05:48;;;;;;;15.20;8.15;;;;;;;3.03;92.05;100808.28;5089840;28;20502;-28
2023/01/26 03:08:13;;;;;;;13.68;7.65;;;;;;;3.01;93.08;100799.72;5090375;28;20036;-27
2023/01/26 03:10:39;;;;;;;12.35;7.05;;;;;;;3.08;92.39;100798.13;5090861;28;20036;-29
2023/01/26 03:13:05;;;;;;;14.40;8.05;;;;;;;3.28;92.20;100800.59;5072229;28;20173;-27
2023/01/26 03:15:51;;;;;;;15.82;7.50;;;;;;;3.06;91.18;100784.25;5089990;28;20107;-28
2023/01/26 03:29:19;;;;;;;13.38;7.65;;;;;;;2.99;94.14;100785.84;5090257;28;20043;-27
2023/01/26 03:31:45;;;;;;;14.13;7.03;;;;;;;3.00;92.84;100776.97;5071846;28;20036;-27
2023/01/26 03:34:10;;;;;;;16.70;8.25;;;;;;;3.07;92.23;100766.66;5071946;28;20411;-27
2023/01/26 03:36:36;;;;;;;12.27;7.28;;;;;;;3.06;93.30;100754.44;5089908;28;20089;-28
2023/01/26 03:39:03;;;;;;;15.98;8.85;;;;;;;3.11;93.78;100768.84;5089865;28;20071;-26
2023/01/26 03:57:52;;;;;;;15.07;7.55;;;;;;;3.21;92.06;100726.56;5089772;28;20514;-26
2023/01/26 04:00:18;;;;;;;15.85;8.10;;;;;;;3.09;92.24;100707.53;5089227;28;20031;-27
2023/01/26 04:08:21;;;;;;;18.48;9.50;;;;;;;2.92;94.49;100718.94;5089647;28;20039;-28
2023/01/26 04:10:50;;;;;;;22.13;10.50;;;;;;;2.98;94.31;100742.88;5089445;28;20118;-30
2023/01/26 04:21:32;;;;;;;24.77;12.82;;;;;;;2.93;94.30;100713.50;5089355;28;20063;-27
2023/01/26 04:23:58;;;;;;;25.65;13.05;;;;;;;3.05;93.88;100727.28;5089349;28;20024;-28
2023/01/26 04:26:35;;;;;;;24.38;13.45;;;;;;;3.02;94.95;100724.94;5071013;28;20039;-27
2023/01/26 04:29:06;;;;;;;21.73;12.00;;;;;;;2.87;96.03;100714.13;5089366;28;20024;-27
2023/01/26 04:31:32;;;;;;;24.90;12.95;;;;;;;2.90;95.89;100718.25;5088683;28;20032;-29
2023/01/26 04:33:59;;;;;;;21.73;11.73;;;;;;;2.88;95.29;100699.13;5070987;28;20051;-27
2023/01/26 04:36:25;;;;;;;22.73;11.18;;;;;;;2.92;95.24;100705.75;5088992;28;20136;-27
2023/01/26 04:38:50;;;;;;;19.13;11.10;;;;;;;3.15;94.99;100714.84;5089163;28;20054;-27
2023/01/26 04:41:16;;;;;;;48.22;24.48;;;;;;;3.09;95.14;100714.63;5088798;28;20415;-27
2023/01/26 04:43:42;;;;;;;55.15;28.38;;;;;;;3.16;94.57;100724.38;5089089;28;20028;-27
2023/01/26 04:46:08;;;;;;;26.88;14.10;;;;;;;3.06;95.33;100710.47;5088626;28;20028;-28
2023/01/26 04:48:34;;;;;;;27.40;14.52;;;;;;;3.05;95.66;100713.28;5089371;28;20032;-25
2023/01/26 04:51:03;;;;;;;36.30;19.08;;;;;;;3.10;94.61;100716.28;5089227;28;20200;-26
2023/01/26 04:53:29;;;;;;;48.85;25.17;;;;;;;2.94;94.86;100699.38;5088495;28;20052;-27
2023/01/26 04:55:54;;;;;;;57.40;27.98;;;;;;;2.95;95.85;100706.28;5070773;28;20120;-29
2023/01/26 04:58:20;;;;;;;59.05;30.13;;;;;;;3.09;95.22;100702.28;5088803;28;20028;-28
2023/01/26 05:00:54;;;;;;;87.32;44.08;;;;;;;3.14;94.52;100710.53;5088741;28;20040;-27
2023/01/26 05:03:20;;;;;;;84.60;43.25;;;;;;;2.87;95.01;100689.59;5088686;28;20077;-28
2023/01/26 05:05:50;;;;;;;72.65;33.92;;;;;;;2.84;96.34;100711.81;5088668;28;20157;-29
2023/01/26 05:08:16;;;;;;;30.80;16.73;;;;;;;2.84;96.70;100710.97;5088623;28;20039;-27
2023/01/26 05:10:42;;;;;;;23.33;12.85;;;;;;;2.81;98.15;100714.75;5088542;28;20099;-27
2023/01/26 05:13:07;;;;;;;118.32;50.10;;;;;;;3.06;95.14;100696.47;5070079;28;20022;-27
2023/01/26 05:15:33;;;;;;;23.98;12.00;;;;;;;2.92;96.31;100716.28;5070418;28;20375;-32
2023/01/26 05:17:59;;;;;;;18.80;10.65;;;;;;;2.79;96.77;100706.97;5070461;28;20496;-30
2023/01/26 05:20:25;;;;;;;20.08;9.43;;;;;;;2.74;97.41;100693.47;5088720;28;20035;-26
2023/01/26 05:22:51;;;;;;;17.42;10.02;;;;;;;2.90;97.22;100707.72;5089032;28;20032;-26
2023/01/26 05:25:17;;;;;;;17.60;9.55;;;;;;;2.68;98.37;100682.72;5088252;28;20036;-26
2023/01/26 05:27:43;;;;;;;21.77;10.13;;;;;;;2.97;97.70;100698.22;5070102;28;20031;-27
2023/01/26 05:30:09;;;;;;;37.60;18.05;;;;;;;3.02;97.55;100701.22;5091224;28;20028;-30
2023/01/26 05:32:35;;;;;;;106.95;49.15;;;;;;;2.92;98.03;100677.63;5074075;28;20028;-31
2023/01/26 05:35:02;;;;;;;45.40;23.33;;;;;;;2.78;97.49;100689.53;5092247;28;20035;-28
2023/01/26 05:37:28;;;;;;;43.72;19.90;;;;;;;2.94;97.14;100683.56;5073402;28;20060;-28
2023/01/26 05:39:53;;;;;;;49.58;24.23;;;;;;;2.61;97.26;100645.59;5091763;28;20040;-26
2023/01/26 05:42:19;;;;;;;187.98;66.28;;;;;;;2.95;96.79;100669.41;5092183;28;20121;-26
2023/01/26 05:44:45;;;;;;;255.20;76.95;;;;;;;2.86;96.63;100667.69;5073995;28;20483;-28
2023/01/26 05:47:10;;;;;;;33.80;16.17;;;;;;;2.98;97.20;100676.16;5092009;28;20028;-27
2023/01/26 05:49:41;;;;;;;21.00;10.82;;;;;;;2.99;97.11;100677.84;5073438;28;20166;-28
2023/01/26 05:52:09;;;;;;;34.88;17.00;;;;;;;2.97;97.74;100661.34;5091849;28;20499;-28
2023/01/26 05:54:35;;;;;;;19.88;10.80;;;;;;;3.02;97.58;100669.59;5073575;28;20423;-28
2023/01/26 05:57:01;;;;;;;23.40;12.70;;;;;;;2.91;97.33;100652.25;5091823;28;20039;-27
2023/01/26 05:59:26;;;;;;;30.77;16.40;;;;;;;2.86;97.55;100648.41;5091598;28;20024;-29
2023/01/26 06:01:51;;;;;;;199.13;48.20;;;;;;;2.87;98.30;100650.09;5091724;28;20036;-27
2023/01/26 06:04:17;;;;;;;23.67;13.02;;;;;;;2.99;97.61;100672.56;5092048;28;20020;-27
2023/01/26 06:06:42;;;;;;;30.60;14.45;;;;;;;3.06;96.96;100670.94;5091579;28;20474;-31
2023/01/26 06:09:08;;;;;;;28.17;14.73;;;;;;;2.90;97.26;100673.47;5073418;28;20030;-28
2023/01/26 06:11:33;;;;;;;26.95;14.63;;;;;;;3.01;98.15;100678.50;5091254;28;20027;-26
2023/01/26 06:13:59;;;;;;;36.33;17.17;;;;;;;2.99;97.21;100675.19;5091841;28;20111;-29
2023/01/26 06:16:24;;;;;;;37.20;17.50;;;;;;;2.99;96.31;100648.84;5091556;28;20085;-27
2023/01/26 06:18:50;;;;;;;38.00;16.60;;;;;;;2.99;97.19;100681.28;5091429;28;20034;-27
2023/01/26 06:21:15;;;;;;;39.92;17.55;;;;;;;3.06;97.56;100673.59;5091312;28;20026;-28
2023/01/26 06:23:41;;;;;;;75.47;31.00;;;;;;;3.12;97.24;100680.88;5091290;28;20112;-26
2023/01/26 06:26:07;;;;;;;34.67;16.17;;;;;;;3.04;97.41;100675.53;5072828;28;20035;-27
2023/01/26 06:28:34;;;;;;;40.28;19.23;;;;;;;3.00;96.10;100655.75;5091407;28;20028;-28
2023/01/26 06:31:04;;;;;;;36.93;17.97;;;;;;;3.04;96.98;100653.66;5072788;28;20028;-27
2023/01/26 06:33:33;;;;;;;488.42;193.98;;;;;;;3.17;94.62;100675.97;5090708;28;20024;-29
2023/01/26 06:36:06;;;;;;;;;;;;;;;3.20;95.38;100675.66;5072955;28;20391;-30
2023/01/26 06:38:31;;;;;;;41.38;21.83;;;;;;;3.39;94.92;100671.97;5090958;28;19923;-28
2023/01/26 06:41:01;;;;;;;18.63;9.50;;;;;;;3.24;94.64;100673.53;5089728;28;20032;-28
2023/01/26 06:43:29;;;;;;;16.95;8.93;;;;;;;3.03;95.64;100681.81;5072459;28;20031;-27
2023/01/26 06:45:56;;;;;;;19.25;9.07;;;;;;;2.98;95.57;100670.88;5072370;28;20028;-28
2023/01/26 06:48:21;;;;;;;45.78;27.63;;;;;;;3.16;94.99;100663.75;5091033;28;20035;-27
2023/01/26 06:50:49;;;;;;;27.55;15.25;;;;;;;3.33;95.03;100662.06;5090960;28;20032;-27
2023/01/26 06:53:54;;;;;;;86.93;46.58;;;;;;;3.42;93.93;100665.56;5090189;28;20129;-28
2023/01/26 06:56:21;;;;;;;17.45;8.85;;;;;;;3.24;91.09;100663.00;5073828;28;20039;-29
2023/01/26 06:58:47;;;;;;;22.08;13.27;;;;;;;6.62;92.53;100657.16;5072389;28;20642;-27
2023/01/26 07:01:18;;;;;;;24.65;13.57;;;;;;;9.73;69.96;100653.66;5090452;28;20154;-28
2023/01/26 07:03:44;;;;;;;21.20;13.63;;;;;;;11.77;61.42;100660.22;5072299;28;20032;-30
2023/01/26 07:06:12;;;;;;;59.42;40.67;;;;;;;13.53;51.70;100677.28;5072178;28;20031;-27
2023/01/26 07:08:38;;;;;;;30.60;19.13;;;;;;;9.02;63.63;100665.34;5090502;28;20038;-27
2023/01/26 07:11:04;;;;;;;33.58;22.08;;;;;;;6.80;71.94;100655.00;5090153;28;20055;-29
2023/01/26 07:13:29;;;;;;;23.98;14.52;;;;;;;5.62;76.58;100649.97;5090041;28;20121;-27
2023/01/26 07:16:03;;;;;;;27.67;17.75;;;;;;;5.86;75.92;100625.16;5089893;28;20028;-27
2023/01/26 07:18:29;;;;;;;24.92;17.85;;;;;;;4.98;82.02;100652.59;5090304;28;20053;-33
2023/01/26 07:21:02;;;;;;;21.60;16.40;;;;;;;5.70;80.00;100635.84;5090048;28;20496;-27
2023/01/26 07:23:28;;;;;;;18.65;12.35;;;;;;;6.32;77.60;100646.44;5089739;28;20106;-27
2023/01/26 07:25:53;;;;;;;19.85;14.57;;;;;;;4.62;81.67;100630.03;5071545;28;20115;-28
2023/01/26 07:28:19;;;;;;;18.20;9.95;;;;;;;4.43;84.71;100628.56;5089921;28;20035;-27
2023/01/26 07:30:44;;;;;;;18.70;9.13;;;;;;;4.79;86.42;100632.66;5089744;28;20031;-28
2023/01/26 07:33:10;;;;;;;17.45;11.45;;;;;;;5.73;84.97;100609.88;5071746;28;20024;-30
2023/01/26 07:35:35;;;;;;;24.55;14.32;;;;;;;5.44;84.65;100615.81;5089589;28;20034;-30
2023/01/26 07:38:03;;;;;;;21.23;10.88;;;;;;;4.71;85.21;100603.59;5071180;28;20466;-29
2023/01/26 07:40:29;;;;;;;19.00;11.13;;;;;;;4.49;88.18;100605.09;5089727;28;20048;-28
2023/01/26 07:42:55;;;;;;;25.13;15.75;;;;;;;5.46;86.72;100574.13;5071406;28;20467;-29
2023/01/26 07:45:21;;;;;;;35.80;25.02;;;;;;;5.60;84.55;100599.03;5070945;28;20545;-32
2023/01/26 07:47:46;;;;;;;22.70;16.80;;;;;;;5.28;85.63;100598.16;5089679;28;20036;-29
2023/01/26 07:50:13;;;;;;;21.10;12.70;;;;;;;4.32;87.32;100591.91;5071470;28;20123;-30
2023/01/26 07:52:39;;;;;;;24.65;13.80;;;;;;;3.91;89.27;100576.03;5070537;28;20028;-28
2023/01/26 07:55:04;;;;;;;17.65;8.55;;;;;;;3.75;93.08;100597.09;5088081;28;20035;-28
2023/01/26 07:57:30;;;;;;;17.85;10.10;;;;;;;3.67;92.48;100578.63;5069761;28;20024;-28
2023/01/26 07:59:56;;;;;;;18.30;8.70;;;;;;;3.54;93.66;100590.47;5088217;28;20031;-26
2023/01/26 08:02:21;;;;;;;13.20;7.25;;;;;;;3.19;96.06;100592.31;5088276;28;20028;-29
2023/01/26 08:04:48;;;;;;;14.65;7.40;;;;;;;3.26;95.97;100591.66;5087707;28;20028;-32
2023/01/26 08:07:13;;;;;;;19.13;9.30;;;;;;;4.70;91.61;100571.06;5087572;28;20112;-30
2023/01/26 08:09:39;;;;;;;20.30;9.32;;;;;;;4.38;88.35;100572.75;5087352;28;20019;-28
2023/01/26 08:12:04;;;;;;;14.32;7.07;;;;;;;3.52;93.26;100608.25;5088085;28;20494;-26
2023/01/26 08:14:30;;;;;;;15.23;6.90;;;;;;;3.31;94.50;100602.56;5087897;28;20480;-26
2023/01/26 08:16:55;;;;;;;17.42;8.55;;;;;;;3.25;96.71;100608.44;5070031;28;20063;-27
2023/01/26 08:19:20;;;;;;;17.20;8.80;;;;;;;2.96;98.40;100599.09;5087634;28;20023;-30
2023/01/26 08:21:46;;;;;;;12.98;7.25;;;;;;;3.15;97.40;100612.03;5087947;28;20032;-29
2023/01/26 08:24:11;;;;;;;16.75;8.63;;;;;;;2.84;100.00;100592.44;5087980;28;20016;-28
2023/01/26 08:26:37;;;;;;;16.33;9.02;;;;;;;3.00;100.00;100597.78;5087585;28;20031;-28
2023/01/26 08:29:03;;;;;;;19.00;11.85;;;;;;;3.24;99.62;100598.91;5086843;28;20024;-30
2023/01/26 08:31:28;;;;;;;19.70;10.77;;;;;;;2.97;100.00;100577.84;5069296;28;20024;-36
2023/01/26 08:33:54;;;;;;;17.55;8.68;;;;;;;3.01;100.00;100583.66;5069846;28;20075;-31
2023/01/26 08:36:21;;;;;;;16.17;7.55;;;;;;;3.02;100.00;100590.56;5087873;28;20549;-30
2023/01/26 08:38:46;;;;;;;16.73;8.35;;;;;;;2.94;100.00;100585.25;5070353;28;20551;-27
2023/01/26 08:41:12;;;;;;;23.80;10.93;;;;;;;2.81;100.00;100562.78;5088261;28;20103;-29
2023/01/26 08:43:38;;;;;;;19.63;10.63;;;;;;;2.81;100.00;100578.59;5087682;28;20024;-29
2023/01/26 08:46:04;;;;;;;12.57;6.32;;;;;;;3.00;100.00;100572.28;5088705;28;20411;-27
2023/01/26 08:48:30;;;;;;;41.67;30.60;;;;;;;3.03;100.00;100552.69;5088169;28;20120;-30
2023/01/26 08:50:58;;;;;;;24.52;13.95;;;;;;;3.07;100.00;100555.84;5088344;28;20035;-29
2023/01/26 08:53:24;;;;;;;18.17;8.38;;;;;;;2.92;100.00;100552.94;5087640;28;20085;-32
2023/01/26 08:55:50;;;;;;;17.17;8.02;;;;;;;3.06;100.00;100541.81;5087740;28;20046;-30
2023/01/26 08:58:15;;;;;;;22.52;11.18;;;;;;;3.03;100.00;100539.53;5087802;28;20103;-31
2023/01/26 09:00:41;;;;;;;15.13;7.97;;;;;;;2.94;100.00;100532.53;5088318;28;20039;-28
2023/01/26 09:03:07;;;;;;;20.02;9.23;;;;;;;3.02;100.00;100527.31;5070302;28;20476;-29
2023/01/26 09:05:38;;;;;;;33.75;19.08;;;;;;;3.33;100.00;100539.94;5091332;28;20020;-28
2023/01/26 09:08:05;;;;;;;45.15;24.25;;;;;;;3.44;100.00;100547.56;5092322;28;20016;-28
2023/01/26 09:10:31;;;;;;;112.80;57.90;;;;;;;3.43;100.00;100540.63;5073587;28;20024;-29
2023/01/26 09:12:57;;;;;;;49.13;32.88;;;;;;;3.11;100.00;100536.91;5092051;28;20054;-30
2023/01/26 09:15:23;;;;;;;13.20;6.93;;;;;;;2.92;100.00;100516.06;5073508;28;20020;-29
2023/01/26 09:17:49;;;;;;;14.02;6.95;;;;;;;3.07;100.00;100535.59;5092203;28;20498;-29
2023/01/26 09:20:15;;;;;;;30.00;20.65;;;;;;;3.25;100.00;100522.31;5092058;28;20097;-28
2023/01/26 09:22:41;;;;;;;18.00;9.73;;;;;;;3.16;100.00;100518.81;5072266;28;20402;-29
2023/01/26 09:25:07;;;;;;;21.42;11.10;;;;;;;3.12;100.00;100517.47;5091733;28;20020;-27
2023/01/26 09:27:33;;;;;;;47.47;27.30;;;;;;;3.13;100.00;100516.50;5092017;28;20016;-27
2023/01/26 09:29:58;;;;;;;26.33;14.55;;;;;;;3.09;100.00;100509.91;5092174;28;20074;-28
2023/01/26 09:32:24;;;;;;;20.02;10.52;;;;;;;3.06;100.00;100518.09;5091552;28;20024;-28
2023/01/26 09:34:50;;;;;;;18.10;9.30;;;;;;;3.01;100.00;100491.44;5073239;28;20036;-29
2023/01/26 09:37:15;;;;;;;23.25;12.48;;;;;;;3.04;100.00;100499.00;5090983;28;20131;-29
2023/01/26 09:39:41;;;;;;;20.20;10.27;;;;;;;3.01;100.00;100499.34;5072934;28;20038;-29
2023/01/26 09:42:30;;;;;;;20.52;11.82;;;;;;;3.18;100.00;100501.03;5091456;28;20462;-29
2023/01/26 09:45:11;;;;;;;20.00;9.63;;;;;;;3.22;100.00;100491.00;5091605;28;20694;-29
2023/01/26 09:48:01;;;;;;;17.15;8.85;;;;;;;3.06;100.00;100491.75;5090887;28;20055;-29
2023/01/26 09:50:39;;;;;;;19.60;9.25;;;;;;;2.96;100.00;100470.84;5091455;28;20027;-29
2023/01/26 09:53:15;;;;;;;18.20;9.13;;;;;;;3.03;100.00;100452.56;5073270;28;20086;-28
2023/01/26 09:55:42;;;;;;;70.00;46.58;;;;;;;3.08;100.00;100452.09;5091059;28;20031;-32
2023/01/26 09:58:17;;;;;;;29.17;17.98;;;;;;;3.07;100.00;100467.06;5072784;28;20096;-29
2023/01/26 10:00:53;;;;;;;35.33;26.52;;;;;;;3.13;100.00;100471.69;5072343;28;20031;-29
2023/01/26 10:03:40;;;;;;;30.08;18.33;;;;;;;3.39;100.00;100454.94;5091077;28;20028;-28
2023/01/26 10:06:29;;;;;;;96.32;45.92;;;;;;;3.26;100.00;100449.34;5073078;28;20153;-27
2023/01/26 10:08:59;;;;;;;41.83;23.98;;;;;;;2.91;100.00;100416.97;5072935;28;20149;-29
2023/01/26 10:11:27;;;;;;;26.15;16.55;;;;;;;3.01;100.00;100441.38;5073093;28;20054;-29
2023/01/26 10:14:13;;;;;;;;;;;;;;;2.98;100.00;100426.72;5091747;28;20537;-27
2023/01/26 10:16:42;;;;;;;25.52;13.65;;;;;;;2.98;100.00;100424.06;5072324;28;19919;-28
2023/01/26 10:19:27;;;;;;;24.35;12.43;;;;;;;3.05;100.00;100410.25;5072948;28;20027;-28
2023/01/26 10:21:57;;;;;;;35.00;23.70;;;;;;;2.97;100.00;100417.13;5091564;28;20028;-27
2023/01/26 10:24:23;;;;;;;27.02;19.40;;;;;;;3.11;100.00;100393.81;5091236;28;20020;-30
2023/01/26 10:26:51;;;;;;;23.98;12.55;;;;;;;3.16;100.00;100404.66;5090527;28;20081;-28
2023/01/26 10:29:17;;;;;;;;;;;;;;;3.11;100.00;100399.06;5073075;28;20027;-28
2023/01/26 10:31:43;;;;;;;21.35;9.75;;;;;;;3.03;100.00;100396.41;5090573;28;19912;-28
2023/01/26 10:34:11;;;;;;;18.88;9.50;;;;;;;3.07;100.00;100393.28;5090371;28;20024;-32
2023/01/26 10:36:39;;;;;;;23.70;12.63;;;;;;;3.08;100.00;100384.38;5071848;28;20056;-31
2023/01/26 10:39:07;;;;;;;23.83;12.82;;;;;;;3.12;100.00;100390.97;5071981;28;20036;-30
2023/01/26 10:41:33;;;;;;;23.65;12.10;;;;;;;3.18;100.00;100378.97;5071468;28;20047;-32
2023/01/26 10:44:21;;;;;;;29.20;15.27;;;;;;;3.12;100.00;100369.91;5071967;28;20032;-33
2023/01/26 10:47:02;;;;;;;28.98;14.13;;;;;;;3.10;100.00;100361.34;5071863;28;20455;-30
2023/01/26 10:49:28;;;;;;;26.05;14.77;;;;;;;3.05;100.00;100347.84;5089753;28;20089;-32
2023/01/26 10:52:20;;;;;;;23.25;11.70;;;;;;;3.05;100.00;100355.75;5090102;28;20025;-29
2023/01/26 10:54:53;;;;;;;29.85;12.82;;;;;;;3.10;100.00;100361.34;5089600;28;20020;-30
2023/01/26 10:57:27;;;;;;;29.38;14.43;;;;;;;3.14;100.00;100331.03;5089818;28;20039;-31
2023/01/26 10:59:55;;;;;;;23.30;12.82;;;;;;;3.09;100.00;100359.69;5071543;28;20063;-31
2023/01/26 11:02:26;;;;;;;23.63;12.60;;;;;;;3.09;100.00;100357.06;5071588;28;20032;-29
2023/01/26 11:05:05;;;;;;;21.52;10.63;;;;;;;2.89;100.00;100334.63;5089862;28;20036;-28
2023/01/26 11:07:34;;;;;;;21.75;10.68;;;;;;;3.04;100.00;100325.09;5090087;28;20032;-29
2023/01/26 11:10:20;;;;;;;21.45;10.82;;;;;;;3.02;100.00;100321.78;5090254;28;20036;-28
2023/01/26 11:12:46;;;;;;;19.13;10.70;;;;;;;3.18;100.00;100337.63;5090258;28;20032;-27
2023/01/26 11:15:18;;;;;;;21.67;10.50;;;;;;;3.22;100.00;100325.75;5089871;28;20070;-27
2023/01/26 11:17:51;;;;;;;18.50;10.32;;;;;;;2.92;100.00;100285.09;5071696;28;20085;-27
2023/01/26 11:20:37;;;;;;;22.52;11.60;;;;;;;2.92;100.00;100321.13;5071867;28;20892;-28
2023/01/26 11:23:21;;;;;;;19.00;10.07;;;;;;;2.80;100.00;100331.19;5071840;28;20119;-28
2023/01/26 11:26:20;;;;;;;24.17;13.50;;;;;;;2.80;100.00;100318.81;5089792;28;20061;-28
2023/01/26 11:29:04;;;;;;;21.15;11.43;;;;;;;2.77;100.00;100311.22;5089282;28;20036;-29
2023/01/26 11:31:57;;;;;;;25.35;12.82;;;;;;;2.96;100.00;100288.19;5085823;28;20028;-28
2023/01/26 11:34:40;;;;;;;96.38;53.42;;;;;;;3.07;100.00;100284.44;5068769;28;20031;-29
2023/01/26 11:37:39;;;;;;;30.90;17.05;;;;;;;2.79;100.00;100285.56;5068699;28;20049;-29
2023/01/26 11:40:26;;;;;;;29.05;14.63;;;;;;;2.99;100.00;100280.00;5068692;28;20040;-30
2023/01/26 11:43:12;;;;;;;26.63;13.43;;;;;;;2.88;100.00;100272.38;5068566;28;20059;-30
2023/01/26 11:46:13;;;;;;;23.77;10.95;;;;;;;3.05;100.00;100260.88;5063963;28;20031;-29
2023/01/26 11:48:44;;;;;;;20.40;10.18;;;;;;;3.09;100.00;100269.28;5069059;28;20039;-30
2023/01/26 11:51:50;;;;;;;23.45;12.88;;;;;;;3.03;100.00;100257.59;5071204;28;20034;-31
2023/01/26 11:54:35;;;;;;;24.70;12.10;;;;;;;3.11;100.00;100251.50;5071314;28;20032;-32
2023/01/26 11:57:03;;;;;;;24.55;12.02;;;;;;;3.07;100.00;100252.81;5071003;28;20019;-30
2023/01/26 11:59:37;;;;;;;52.15;26.40;;;;;;;2.97;100.00;100224.00;5070699;28;20056;-29
2023/01/26 12:02:10;;;;;;;29.77;15.75;;;;;;;2.97;100.00;100235.34;5088990;28;20078;-29
2023/01/26 12:04:44;;;;;;;34.10;17.92;;;;;;;3.05;100.00;100221.38;5088437;28;20028;-29
2023/01/26 12:07:26;;;;;;;34.58;19.02;;;;;;;3.06;100.00;100230.91;5062824;28;20043;-28
2023/01/26 12:09:52;;;;;;;28.17;15.93;;;;;;;2.97;100.00;100202.94;5086827;28;20039;-29
2023/01/26 12:12:41;;;;;;;28.00;16.15;;;;;;;3.32;100.00;100232.53;5088098;28;20514;-28
2023/01/26 12:15:12;;;;;;;34.45;21.48;;;;;;;3.32;100.00;100224.63;5067976;28;20032;-32